Time;durP1;ratioP1;P1;durP2;ratioP2;P2;SDS_P1;SDS_P2;PMS_P1;PMS_P2;Temp;Humidity;BMP_temperature;BMP_pressure;BME280_temperature;BME280_humidity;BME280_pressure;Samples;Min_cycle;Max_cycle;Signal;HPM_P1;HPM_P2
2021/03/01 00:00:49;;;;;;;7.83;5.83;;;;;;;2.42;77.45;101183.95;1778630;79;21217;-47
2021/03/01 00:03:18;;;;;;;7.90;6.10;;;;;;;2.43;77.57;101181.77;1743631;80;21187;-47
2021/03/01 00:05:45;;;;;;;7.67;6.03;;;;;;;2.43;77.65;101187.03;1746869;80;21185;-45
2021/03/01 00:08:14;;;;;;;8.48;6.90;;;;;;;2.43;77.71;101183.95;1752694;80;21153;-43
2021/03/01 00:10:43;;;;;;;8.75;6.83;;;;;;;2.43;77.76;101187.03;1810129;77;21152;-44
2021/03/01 00:13:11;;;;;;;9.13;6.58;;;;;;;2.42;77.82;101195.39;1809056;77;21366;-46
2021/03/01 00:15:39;;;;;;;8.65;6.45;;;;;;;2.38;77.92;101203.75;1819259;77;21134;-43
2021/03/01 00:18:08;;;;;;;9.10;7.17;;;;;;;2.36;78.02;101209.48;1822517;77;21576;-42
2021/03/01 00:20:35;;;;;;;8.95;6.65;;;;;;;2.31;78.17;101219.20;1813932;77;21189;-42
2021/03/01 00:23:03;;;;;;;7.95;6.30;;;;;;;2.26;78.37;101227.59;1804521;77;21120;-42
2021/03/01 00:25:31;;;;;;;10.15;6.05;;;;;;;2.22;78.53;101230.28;1761423;79;21141;-48
2021/03/01 00:27:59;;;;;;;8.88;5.40;;;;;;;2.22;78.66;101227.23;1773039;79;21169;-43
2021/03/01 00:30:27;;;;;;;7.55;5.53;;;;;;;2.22;78.76;101225.02;1763193;79;21169;-45
2021/03/01 00:32:55;;;;;;;8.05;4.55;;;;;;;2.21;78.83;101228.55;1814857;77;21129;-44
2021/03/01 00:35:22;;;;;;;6.40;3.92;;;;;;;2.16;78.94;101226.83;1802252;78;21569;-45
2021/03/01 00:37:51;;;;;;;6.33;4.37;;;;;;;2.16;79.01;101224.20;1807757;77;21155;-42
2021/03/01 00:40:18;;;;;;;6.65;4.20;;;;;;;2.15;79.04;101223.79;1807309;77;21196;-45
2021/03/01 00:42:46;;;;;;;4.58;3.17;;;;;;;2.15;79.12;101218.97;1819362;77;21175;-44
2021/03/01 00:45:14;;;;;;;5.22;3.33;;;;;;;2.15;79.19;101215.89;1816564;77;21153;-43
2021/03/01 00:47:42;;;;;;;5.30;3.58;;;;;;;2.13;79.24;101226.02;1810521;77;21144;-43
2021/03/01 00:50:11;;;;;;;5.22;3.72;;;;;;;2.10;79.34;101232.18;1821299;77;21171;-42
2021/03/01 00:52:39;;;;;;;4.90;3.35;;;;;;;2.10;79.40;101226.05;1825933;77;21141;-44
2021/03/01 00:55:09;;;;;;;4.42;3.90;;;;;;;2.13;79.46;101237.41;1781753;79;21670;-46
2021/03/01 00:57:37;;;;;;;4.37;3.42;;;;;;;2.19;79.42;101240.84;1745267;80;21572;-44
2021/03/01 01:00:09;;;;;;;5.17;3.80;;;;;;;2.16;79.45;101241.31;1736360;80;21194;-44
2021/03/01 01:02:37;;;;;;;8.33;4.42;;;;;;;2.15;79.46;101239.58;1763166;79;21158;-46
2021/03/01 01:05:42;;;;;;;3.95;2.92;;;;;;;2.20;79.51;101239.98;1783448;78;23535;-45
2021/03/01 01:08:10;;;;;;;4.35;3.55;;;;;;;2.20;79.51;101239.53;1777007;79;21145;-45
2021/03/01 01:10:38;;;;;;;5.47;3.80;;;;;;;2.27;79.39;101256.09;1760770;80;21184;-48
2021/03/01 01:13:06;;;;;;;4.62;3.20;;;;;;;2.25;79.29;101265.34;1786196;79;21225;-44
2021/03/01 01:15:35;;;;;;;3.65;2.98;;;;;;;2.20;79.34;101273.75;1790277;79;21128;-46
2021/03/01 01:18:06;;;;;;;4.45;3.55;;;;;;;2.16;79.43;101283.41;1764292;80;21155;-43
2021/03/01 01:20:34;;;;;;;5.00;3.35;;;;;;;2.10;79.49;101287.89;1768954;79;21149;-45
2021/03/01 01:23:02;;;;;;;4.83;3.33;;;;;;;2.06;79.61;101304.59;1778239;80;21196;-46
2021/03/01 01:25:30;;;;;;;4.87;3.77;;;;;;;2.04;79.73;101308.99;1751066;81;21797;-43
2021/03/01 01:27:57;;;;;;;4.58;2.83;;;;;;;2.01;79.81;101311.66;1722391;81;21173;-43
2021/03/01 01:30:26;;;;;;;5.37;3.65;;;;;;;1.99;79.90;101313.43;1704254;82;21225;-48
2021/03/01 01:32:53;;;;;;;3.77;2.85;;;;;;;1.99;79.99;101318.69;1726033;81;21655;-44
2021/03/01 01:35:21;;;;;;;4.12;3.00;;;;;;;1.99;80.05;101321.33;1716708;81;21183;-44
2021/03/01 01:37:49;;;;;;;3.45;3.00;;;;;;;2.01;80.08;101329.63;1747898;81;21172;-44
2021/03/01 01:40:19;;;;;;;3.98;2.77;;;;;;;2.02;80.09;101334.02;1749547;81;21136;-43
2021/03/01 01:42:48;;;;;;;3.55;2.85;;;;;;;2.03;80.05;101342.78;1726194;81;21145;-43
2021/03/01 01:45:19;;;;;;;3.52;2.62;;;;;;;2.02;80.09;101343.23;1740519;81;21493;-43
2021/03/01 01:47:49;;;;;;;3.67;2.92;;;;;;;2.03;80.09;101348.05;1746044;81;21145;-43
2021/03/01 01:50:22;;;;;;;2.87;2.50;;;;;;;2.05;80.11;101353.72;1749614;81;21180;-42
2021/03/01 01:52:51;;;;;;;3.50;3.17;;;;;;;2.07;80.07;101353.72;1720886;81;21152;-47
2021/03/01 01:55:18;;;;;;;4.10;2.92;;;;;;;2.08;80.04;101352.82;1717139;81;21183;-45
2021/03/01 01:57:46;;;;;;;4.37;2.85;;;;;;;2.11;80.16;101359.36;1701180;83;21175;-41
2021/03/01 02:03:43;;;;;;;2.67;1.98;;;;;;;2.12;80.12;101362.44;1728228;81;21205;-45
2021/03/01 02:06:29;;;;;;;3.65;2.35;;;;;;;2.12;80.02;101359.36;1719927;81;21323;-45
2021/03/01 02:09:18;;;;;;;3.22;2.77;;;;;;;2.16;79.99;101347.89;1724951;81;21198;-46
2021/03/01 02:12:06;;;;;;;3.10;2.08;;;;;;;2.21;79.86;101357.52;1714846;82;21624;-49
2021/03/01 02:15:05;;;;;;;4.15;2.20;;;;;;;2.23;79.79;101357.06;1720880;82;21112;-51
2021/03/01 02:20:11;;;;;;;3.00;2.25;;;;;;;2.27;79.64;101363.61;1800568;77;22873;-44
2021/03/01 02:22:41;;;;;;;4.05;2.75;;;;;;;2.21;79.64;101366.28;1778032;78;21094;-44
2021/03/01 02:25:12;;;;;;;3.65;2.40;;;;;;;2.22;79.59;101373.31;1772717;78;21113;-44
2021/03/01 02:27:44;;;;;;;2.72;2.02;;;;;;;2.21;79.59;101361.47;1773574;78;21658;-46
2021/03/01 02:30:25;;;;;;;3.95;2.60;;;;;;;2.24;79.56;101362.30;1744259;79;21142;-44
2021/03/01 02:32:57;;;;;;;4.55;3.55;;;;;;;2.27;79.52;101365.34;1773959;78;21669;-45
2021/03/01 02:35:24;;;;;;;4.75;3.60;;;;;;;2.27;79.41;101362.28;1776285;79;21134;-45
2021/03/01 02:37:52;;;;;;;5.08;3.55;;;;;;;2.25;79.38;101373.27;1696490;82;21173;-46
2021/03/01 02:40:20;;;;;;;4.17;3.40;;;;;;;2.20;79.36;101376.39;1721160;81;21120;-41
2021/03/01 02:42:47;;;;;;;4.20;3.80;;;;;;;2.16;79.43;101380.80;1720229;81;21099;-45
2021/03/01 02:45:15;;;;;;;4.22;3.10;;;;;;;2.14;79.46;101393.54;1714596;81;21131;-46
2021/03/01 02:47:43;;;;;;;3.25;2.60;;;;;;;2.14;79.53;101396.17;1728423;81;21431;-46
2021/03/01 02:50:12;;;;;;;5.15;3.72;;;;;;;2.16;79.53;101403.61;1722893;81;21154;-44
2021/03/01 02:52:40;;;;;;;5.17;3.25;;;;;;;2.12;79.54;101405.41;1691271;82;21154;-43
2021/03/01 02:55:09;;;;;;;5.15;3.12;;;;;;;2.11;79.61;101415.95;1718558;81;21563;-43
2021/03/01 02:57:37;;;;;;;4.65;3.75;;;;;;;2.09;79.67;101424.29;1717322;81;21133;-44
2021/03/01 03:00:08;;;;;;;4.15;3.58;;;;;;;2.07;79.75;101417.74;1683500;82;21165;-45
2021/03/01 03:02:36;;;;;;;3.52;3.22;;;;;;;2.04;79.88;101428.30;1722412;81;21196;-43
2021/03/01 03:05:07;;;;;;;3.87;3.52;;;;;;;2.05;79.95;101430.48;1748782;80;21167;-46
2021/03/01 03:07:35;;;;;;;4.80;3.33;;;;;;;2.08;79.94;101430.00;1742857;80;21155;-46
2021/03/01 03:10:05;;;;;;;3.98;3.27;;;;;;;2.10;79.91;101436.13;1744402;80;21197;-47
2021/03/01 03:12:33;;;;;;;4.10;3.70;;;;;;;2.12;79.90;101437.45;1741245;80;21570;-46
2021/03/01 03:15:01;;;;;;;3.67;3.02;;;;;;;2.10;79.89;101442.71;1736143;80;21171;-46
2021/03/01 03:17:32;;;;;;;3.85;3.45;;;;;;;2.06;79.98;101447.55;1745986;80;21198;-46
2021/03/01 03:20:00;;;;;;;3.47;3.10;;;;;;;2.03;80.07;101448.91;1713457;81;21160;-44
2021/03/01 03:22:29;;;;;;;4.20;3.47;;;;;;;2.03;80.12;101457.25;1725150;81;21156;-44
2021/03/01 03:24:56;;;;;;;4.15;2.80;;;;;;;2.03;80.16;101462.06;1716801;81;21694;-43
2021/03/01 03:27:24;;;;;;;3.47;3.17;;;;;;;2.06;80.15;101467.74;1757114;79;21157;-42
2021/03/01 03:29:52;;;;;;;4.40;3.35;;;;;;;2.08;80.11;101469.48;1759743;79;21565;-45
2021/03/01 03:32:20;;;;;;;4.10;3.10;;;;;;;2.09;80.12;101471.66;1763070;79;21111;-43
2021/03/01 03:34:48;;;;;;;3.87;3.25;;;;;;;2.10;80.10;101472.98;1765473;79;21130;-44
2021/03/01 03:37:28;;;;;;;4.12;3.15;;;;;;;2.12;80.09;101480.87;1742357;80;21153;-44
2021/03/01 03:39:56;;;;;;;3.40;2.80;;;;;;;2.13;80.06;101486.10;1758979;79;21098;-44
2021/03/01 03:42:27;;;;;;;4.20;3.20;;;;;;;2.14;80.06;101484.34;1683208;84;21171;-45
2021/03/01 03:44:55;;;;;;;3.77;2.85;;;;;;;2.17;79.99;101484.34;1759870;79;21178;-45
2021/03/01 03:47:23;;;;;;;3.80;3.40;;;;;;;2.12;80.00;101484.82;1764801;79;21575;-46
2021/03/01 03:49:55;;;;;;;4.40;3.65;;;;;;;2.11;80.05;101489.62;1758559;79;21175;-44
2021/03/01 03:52:25;;;;;;;3.72;3.33;;;;;;;2.08;80.05;101496.24;1762085;79;21142;-44
2021/03/01 03:54:53;;;;;;;4.45;4.05;;;;;;;2.04;80.15;101491.45;1759191;79;21587;-42
2021/03/01 03:57:23;;;;;;;6.37;4.58;;;;;;;2.07;80.19;101495.38;1757870;79;22029;-44
2021/03/01 03:59:52;;;;;;;4.97;3.80;;;;;;;2.08;80.12;101493.61;1762907;79;21154;-45
2021/03/01 04:02:21;;;;;;;5.20;4.35;;;;;;;2.08;80.12;101493.61;1760169;79;21698;-44
2021/03/01 04:04:49;;;;;;;4.55;3.85;;;;;;;2.12;80.19;101492.72;1756547;79;21179;-44
2021/03/01 04:07:19;;;;;;;5.35;4.80;;;;;;;2.12;80.15;101494.89;1760872;79;21182;-45
2021/03/01 04:09:46;;;;;;;5.28;4.72;;;;;;;2.16;80.18;101485.20;1761876;79;21578;-44
2021/03/01 04:12:15;;;;;;;4.97;4.33;;;;;;;2.25;80.16;101485.14;1708565;82;21140;-47
2021/03/01 04:14:45;;;;;;;4.62;4.20;;;;;;;2.32;80.01;101491.23;1709414;82;21139;-44
2021/03/01 04:17:14;;;;;;;4.97;3.92;;;;;;;2.37;79.85;101488.98;1768516;79;21106;-43
2021/03/01 04:19:44;;;;;;;6.17;4.85;;;;;;;2.41;79.68;101490.27;1765877;79;21573;-43
2021/03/01 04:22:11;;;;;;;5.58;4.05;;;;;;;2.40;79.50;101501.70;1748881;79;21157;-43
2021/03/01 04:24:41;;;;;;;5.40;4.03;;;;;;;2.32;79.51;101506.59;1737499;80;22103;-43
2021/03/01 04:27:09;;;;;;;4.92;4.42;;;;;;;2.29;79.51;101514.93;1740230;80;21137;-45
2021/03/01 04:29:38;;;;;;;4.97;4.45;;;;;;;2.24;79.52;101512.33;1722411;81;21137;-44
2021/03/01 04:32:06;;;;;;;4.87;4.12;;;;;;;2.19;79.56;101515.89;1739932;80;21102;-45
2021/03/01 04:34:34;;;;;;;6.92;4.70;;;;;;;2.15;79.65;101516.38;1739753;80;21175;-45
2021/03/01 04:37:02;;;;;;;5.95;4.78;;;;;;;2.15;79.72;101515.92;1747448;81;21692;-43
2021/03/01 04:39:30;;;;;;;4.83;3.65;;;;;;;2.15;79.73;101519.00;1735638;81;21138;-44
2021/03/01 04:41:57;;;;;;;5.92;4.17;;;;;;;2.15;79.73;101517.69;1740006;80;21522;-44
2021/03/01 04:44:25;;;;;;;5.87;4.05;;;;;;;2.17;79.76;101514.61;1749033;79;21132;-43
2021/03/01 04:46:53;;;;;;;5.85;5.08;;;;;;;2.19;79.76;101522.02;1750672;81;21153;-44
2021/03/01 04:49:22;;;;;;;4.95;4.28;;;;;;;2.22;79.72;101524.66;1737127;81;21161;-44
2021/03/01 04:51:50;;;;;;;4.42;3.98;;;;;;;2.22;79.71;101525.97;1742128;81;21149;-45
2021/03/01 04:54:18;;;;;;;5.20;4.35;;;;;;;2.22;79.68;101525.97;1705738;81;21488;-43
2021/03/01 04:56:46;;;;;;;5.50;4.20;;;;;;;2.20;79.67;101533.00;1745490;81;21488;-45
2021/03/01 04:59:15;;;;;;;4.75;3.83;;;;;;;2.18;79.71;101543.97;1736407;81;22085;-43
2021/03/01 05:01:42;;;;;;;4.42;3.62;;;;;;;2.20;79.75;101544.84;1742630;79;21150;-45
2021/03/01 05:04:12;;;;;;;5.62;4.47;;;;;;;2.24;79.73;101558.39;1739613;80;21121;-43
2021/03/01 05:06:40;;;;;;;5.15;4.25;;;;;;;2.26;79.72;101555.77;1697750;81;21138;-49
2021/03/01 05:09:08;;;;;;;5.70;4.75;;;;;;;2.25;79.67;101556.66;1738057;80;21150;-53
2021/03/01 05:11:37;;;;;;;6.15;4.42;;;;;;;2.22;79.68;101555.34;1738784;81;21141;-45
2021/03/01 05:14:06;;;;;;;4.40;3.72;;;;;;;2.22;79.75;101560.61;1744830;81;21141;-44
2021/03/01 05:16:34;;;;;;;5.45;4.70;;;;;;;2.22;79.75;101570.72;1736936;79;21110;-43
2021/03/01 05:19:03;;;;;;;6.65;4.70;;;;;;;2.23;79.84;101579.48;1739320;79;21661;-44
2021/03/01 05:21:31;;;;;;;5.28;4.55;;;;;;;2.29;79.80;101581.64;1740331;81;21157;-43
2021/03/01 05:23:59;;;;;;;5.75;4.58;;;;;;;2.32;79.74;101589.96;1765847;79;21181;-56
2021/03/01 05:26:27;;;;;;;6.40;4.08;;;;;;;2.30;79.75;101595.23;1767813;79;21139;-44
2021/03/01 05:28:56;;;;;;;5.45;4.67;;;;;;;2.29;79.76;101601.39;1741667;80;21641;-44
2021/03/01 05:31:25;;;;;;;5.17;4.30;;;;;;;2.29;79.82;101610.60;1680428;83;21132;-44
2021/03/01 05:33:52;;;;;;;6.33;4.50;;;;;;;2.29;79.76;101614.55;1733550;80;21144;-42
2021/03/01 05:36:20;;;;;;;5.00;4.28;;;;;;;2.29;79.81;101611.92;1738884;80;21147;-42
2021/03/01 05:38:48;;;;;;;6.00;4.75;;;;;;;2.31;79.83;101615.39;1732029;80;21321;-44
2021/03/01 05:41:18;;;;;;;6.58;5.42;;;;;;;2.34;79.81;101615.39;1735430;80;21905;-45
2021/03/01 05:43:47;;;;;;;5.05;4.30;;;;;;;2.37;79.78;101621.08;1736839;81;21156;-43
2021/03/01 05:46:18;;;;;;;6.05;4.30;;;;;;;2.41;79.76;101628.05;1734415;80;21162;-44
2021/03/01 05:48:46;;;;;;;6.33;4.97;;;;;;;2.44;79.56;101643.83;1727723;80;21159;-43
2021/03/01 05:51:15;;;;;;;5.65;4.90;;;;;;;2.39;79.74;101635.08;1737562;80;21151;-45
2021/03/01 05:53:44;;;;;;;5.67;4.87;;;;;;;2.38;79.52;101643.43;1733921;80;21136;-45
2021/03/01 05:56:12;;;;;;;5.62;4.80;;;;;;;2.34;79.59;101645.67;1748367;81;21143;-46
2021/03/01 05:58:40;;;;;;;5.20;4.67;;;;;;;2.35;79.66;101661.89;1734454;81;21148;-45
2021/03/01 06:01:08;;;;;;;7.70;5.17;;;;;;;2.36;79.68;101662.75;1683161;84;21182;-48
2021/03/01 06:03:37;;;;;;;5.87;5.17;;;;;;;2.36;79.65;101664.07;1729067;80;21183;-45
2021/03/01 06:06:05;;;;;;;6.17;5.40;;;;;;;2.34;79.66;101664.52;1706674;82;21609;-47
2021/03/01 06:08:34;;;;;;;5.75;5.17;;;;;;;2.32;79.74;101671.13;1703021;82;21113;-46
2021/03/01 06:11:04;;;;;;;7.42;5.92;;;;;;;2.35;79.70;101675.05;1738747;80;21140;-50
2021/03/01 06:13:32;;;;;;;5.90;5.30;;;;;;;2.31;79.72;101681.20;1700749;82;21112;-45
2021/03/01 06:16:01;;;;;;;6.20;5.58;;;;;;;2.27;79.88;101683.86;1713985;81;21122;-45
2021/03/01 06:18:29;;;;;;;7.90;5.47;;;;;;;2.25;80.03;101695.73;1714556;81;21551;-45
2021/03/01 06:21:17;;;;;;;5.70;4.80;;;;;;;2.23;80.11;101697.94;1719635;81;21274;-46
2021/03/01 06:23:45;;;;;;;7.22;4.58;;;;;;;2.23;80.11;101703.20;1709537;81;21173;-45
2021/03/01 06:26:30;;;;;;;5.22;4.60;;;;;;;2.24;80.21;101712.39;1742042;80;21554;-47
2021/03/01 06:29:07;;;;;;;6.50;4.70;;;;;;;2.27;80.25;101717.66;1746209;81;21134;-45
2021/03/01 06:31:47;;;;;;;5.80;5.12;;;;;;;2.31;80.15;101720.70;1738511;80;21315;-45
2021/03/01 06:34:22;;;;;;;6.65;5.28;;;;;;;2.30;80.18;101725.54;1738783;80;21137;-45
2021/03/01 06:37:04;;;;;;;8.05;5.58;;;;;;;2.31;80.13;101731.23;1742603;80;21141;-45
2021/03/01 06:39:40;;;;;;;7.03;5.53;;;;;;;2.33;80.15;101732.55;1739354;81;21141;-45
2021/03/01 06:42:21;;;;;;;8.03;6.37;;;;;;;2.35;80.19;101744.83;1731490;80;21161;-46
2021/03/01 06:45:05;;;;;;;9.53;6.05;;;;;;;2.36;80.21;101752.27;1741653;80;21165;-45
2021/03/01 06:47:53;;;;;;;7.55;6.60;;;;;;;2.37;80.23;101758.86;1741813;81;21157;-45
2021/03/01 06:50:46;;;;;;;8.80;7.47;;;;;;;2.40;80.26;101765.00;1738277;80;21126;-45
2021/03/01 06:53:16;;;;;;;7.03;5.58;;;;;;;2.41;80.16;101762.34;1740487;79;21141;-45
2021/03/01 06:56:04;;;;;;;7.22;6.37;;;;;;;2.38;80.19;101764.55;1744738;79;21157;-45
2021/03/01 06:58:39;;;;;;;9.35;7.55;;;;;;;2.36;80.18;101768.94;1738596;81;21130;-46
2021/03/01 07:01:10;;;;;;;14.03;9.05;;;;;;;2.35;80.19;101771.60;1737327;80;21606;-44
2021/03/01 07:03:41;;;;;;;8.68;7.10;;;;;;;2.29;80.20;101765.93;1741039;81;21306;-45
2021/03/01 07:06:09;;;;;;;8.78;7.85;;;;;;;2.24;80.33;101769.43;1742855;79;21153;-45
2021/03/01 07:08:49;;;;;;;7.20;5.70;;;;;;;2.18;80.58;101769.02;1735760;81;21557;-44
2021/03/01 07:11:32;;;;;;;7.53;5.75;;;;;;;2.16;80.75;101777.36;1744268;79;21152;-46
2021/03/01 07:14:20;;;;;;;7.42;6.00;;;;;;;2.21;80.88;101769.00;1736309;81;21153;-45
2021/03/01 07:16:58;;;;;;;7.03;5.37;;;;;;;2.26;80.95;101764.59;1742700;81;21130;-44
2021/03/01 07:19:28;;;;;;;6.95;5.15;;;;;;;2.30;80.87;101766.80;1739456;81;21632;-44
2021/03/01 07:21:59;;;;;;;7.95;5.12;;;;;;;2.27;80.98;101773.36;1738304;79;21169;-44
2021/03/01 07:24:28;;;;;;;5.67;4.62;;;;;;;2.23;81.05;101766.38;1756269;79;21181;-47
2021/03/01 07:26:58;;;;;;;5.67;4.42;;;;;;;2.21;81.12;101778.22;1766556;79;21140;-46
2021/03/01 07:29:31;;;;;;;5.65;5.05;;;;;;;2.23;81.10;101780.86;1764432;79;21130;-46
2021/03/01 07:32:27;;;;;;;6.90;5.03;;;;;;;2.29;80.95;101783.45;1812475;78;23085;-47
2021/03/01 07:34:55;;;;;;;5.72;4.50;;;;;;;2.21;81.03;101785.25;1731069;81;21589;-45
2021/03/01 07:37:22;;;;;;;5.75;4.92;;;;;;;2.21;81.11;101797.95;1702520;83;21671;-45
2021/03/01 07:39:50;;;;;;;6.45;4.50;;;;;;;2.26;81.22;101801.90;1703597;83;21660;-44
2021/03/01 07:42:18;;;;;;;6.30;5.42;;;;;;;2.28;81.15;101801.46;1708770;82;21190;-47
2021/03/01 07:44:49;;;;;;;5.53;4.60;;;;;;;2.29;81.13;101796.20;1677481;83;21700;-44
2021/03/01 07:47:38;;;;;;;6.60;4.85;;;;;;;2.30;81.13;101793.99;1668249;83;21181;-41
2021/03/01 07:54:56;;;;;;;5.45;4.85;;;;;;;2.26;81.17;101802.77;1596243;88;21409;-51
2021/03/01 07:57:25;;;;;;;8.38;5.80;;;;;;;2.28;81.27;101804.96;1560615;90;21355;-46
2021/03/01 08:00:20;;;;;;;7.22;4.62;;;;;;;2.36;81.33;101797.91;1789878;77;27787;-46
2021/03/01 08:02:50;;;;;;;6.97;4.90;;;;;;;2.34;81.19;101806.69;1763364;78;21570;-46
2021/03/01 08:05:32;;;;;;;6.08;4.47;;;;;;;2.36;81.03;101813.70;1753517;80;21147;-46
2021/03/01 08:08:00;;;;;;;4.40;3.45;;;;;;;2.36;80.76;101804.94;1756105;80;21288;-46
2021/03/01 08:10:36;;;;;;;5.05;4.03;;;;;;;2.36;80.88;101811.52;1755049;80;21179;-46
2021/03/01 08:13:06;;;;;;;4.67;3.83;;;;;;;2.36;80.69;101811.07;1749378;80;21133;-46
2021/03/01 08:15:37;;;;;;;6.65;4.85;;;;;;;2.33;80.62;101819.44;1726073;80;21157;-46
2021/03/01 08:18:06;;;;;;;6.67;4.67;;;;;;;2.34;80.78;101818.12;1717482;81;21710;-46
2021/03/01 08:20:37;;;;;;;8.90;5.28;;;;;;;2.41;80.91;101819.41;1727008;81;21682;-46
2021/03/01 08:23:10;;;;;;;10.20;6.47;;;;;;;2.51;80.72;101821.12;1724690;81;21151;-44
2021/03/01 08:25:49;;;;;;;8.43;5.05;;;;;;;2.60;80.66;101828.99;1726735;81;21723;-41
2021/03/01 08:28:31;;;;;;;4.35;3.92;;;;;;;2.68;79.93;101835.55;1720818;81;21539;-44
2021/03/01 08:31:13;;;;;;;5.12;4.08;;;;;;;2.66;80.03;101839.49;1689869;83;21170;-50
2021/03/01 08:33:41;;;;;;;5.75;3.98;;;;;;;2.66;79.92;101841.26;1678927;83;21169;-47
2021/03/01 08:36:16;;;;;;;5.17;3.92;;;;;;;2.63;79.97;101848.73;1688929;83;21174;-42
2021/03/01 08:38:49;;;;;;;6.08;4.15;;;;;;;2.60;79.84;101854.02;1726309;81;21149;-40
2021/03/01 08:41:37;;;;;;;5.72;4.15;;;;;;;2.58;79.86;101861.05;1725893;81;21141;-43
2021/03/01 08:44:20;;;;;;;5.58;4.42;;;;;;;2.56;79.80;101864.11;1725691;81;21137;-43
2021/03/01 08:46:49;;;;;;;4.92;3.83;;;;;;;2.49;79.75;101868.97;1722122;81;21603;-44
2021/03/01 08:49:26;;;;;;;6.10;3.83;;;;;;;2.41;79.86;101874.25;1694583;83;21145;-41
2021/03/01 08:51:55;;;;;;;5.28;4.33;;;;;;;2.37;80.07;101872.08;1688505;83;21909;-42
2021/03/01 08:54:29;;;;;;;6.87;4.67;;;;;;;2.43;80.18;101877.77;1735611;81;21157;-42
2021/03/01 08:57:07;;;;;;;6.87;5.08;;;;;;;2.48;80.24;101883.03;1718737;81;21601;-43
2021/03/01 08:59:35;;;;;;;6.10;5.42;;;;;;;2.50;80.09;101876.88;1717380;81;21142;-42
2021/03/01 09:02:03;;;;;;;6.92;5.45;;;;;;;2.51;80.25;101876.42;1716662;82;21719;-40
2021/03/01 09:04:31;;;;;;;7.28;5.37;;;;;;;2.58;80.38;101877.72;1714966;82;21709;-40
2021/03/01 09:07:05;;;;;;;6.92;5.45;;;;;;;2.66;80.37;101882.95;1710894;82;21197;-42
2021/03/01 09:09:48;;;;;;;9.35;6.80;;;;;;;2.74;80.31;101888.20;1746836;80;21181;-40
2021/03/01 09:12:18;;;;;;;6.92;5.58;;;;;;;2.78;80.23;101886.86;1747328;80;21147;-42
2021/03/01 09:14:47;;;;;;;8.95;6.20;;;;;;;2.86;79.99;101880.69;1749299;80;21688;-43
2021/03/01 09:17:15;;;;;;;8.20;6.35;;;;;;;2.90;79.69;101889.00;1750352;80;21118;-41
2021/03/01 09:19:56;;;;;;;15.38;8.48;;;;;;;2.98;79.76;101892.05;1686530;83;21137;-45
2021/03/01 09:22:31;;;;;;;27.07;17.90;;;;;;;3.09;79.60;101901.21;1748400;81;21940;-43
2021/03/01 09:24:59;;;;;;;19.65;11.70;;;;;;;3.19;79.48;101903.36;1709050;81;21148;-44
2021/03/01 09:27:32;;;;;;;34.45;19.15;;;;;;;3.24;78.62;101910.36;1716973;81;21181;-40
2021/03/01 09:30:04;;;;;;;26.02;15.25;;;;;;;3.27;78.76;101911.23;1750342;80;21165;-41
2021/03/01 09:32:32;;;;;;;12.82;7.10;;;;;;;3.33;77.92;101913.84;1746511;80;21164;-41
2021/03/01 09:35:00;;;;;;;39.67;20.97;;;;;;;3.27;77.62;101910.78;1727431;80;21137;-40
2021/03/01 09:37:28;;;;;;;37.38;18.12;;;;;;;3.26;77.66;101913.00;1743535;80;21125;-40
2021/03/01 09:39:56;;;;;;;25.60;14.30;;;;;;;3.30;77.42;101913.42;1744055;80;21169;-41
2021/03/01 09:42:23;;;;;;;26.55;13.70;;;;;;;3.35;77.51;101916.91;1747111;80;21153;-42
2021/03/01 09:44:51;;;;;;;51.95;25.32;;;;;;;3.39;77.34;101917.75;1748808;80;21174;-42
2021/03/01 09:47:19;;;;;;;43.98;20.48;;;;;;;3.41;76.95;101914.67;1748354;80;21141;-42
2021/03/01 09:50:33;;;;;;;20.77;11.43;;;;;;;3.47;76.44;101925.17;1717558;80;21173;-42
2021/03/01 09:53:31;;;;;;;35.85;17.55;;;;;;;3.50;75.75;101926.91;1689299;83;21788;-42
2021/03/01 09:55:59;;;;;;;26.68;14.68;;;;;;;3.49;76.02;101932.63;1692124;83;21135;-40
2021/03/01 09:58:33;;;;;;;14.13;8.68;;;;;;;3.53;75.79;101936.11;1690302;83;21177;-44
2021/03/01 10:01:16;;;;;;;8.28;5.90;;;;;;;3.55;75.47;101937.86;1693180;83;21169;-41
2021/03/01 10:03:46;;;;;;;6.47;5.45;;;;;;;3.56;75.61;101935.67;1688544;83;21300;-41
2021/03/01 10:06:17;;;;;;;6.75;5.53;;;;;;;3.60;75.29;101933.88;1696080;83;21773;-43
2021/03/01 10:09:11;;;;;;;5.95;4.67;;;;;;;3.65;75.39;101935.63;1797498;78;23590;-42
2021/03/01 10:11:39;;;;;;;6.60;4.35;;;;;;;3.65;75.13;101935.63;1771760;79;21133;-43
2021/03/01 10:14:11;;;;;;;5.55;4.65;;;;;;;3.70;75.16;101934.24;1738424;81;21118;-43
2021/03/01 10:16:40;;;;;;;7.70;5.55;;;;;;;3.75;74.79;101927.62;1704582;82;21205;-43
2021/03/01 10:19:18;;;;;;;7.47;6.47;;;;;;;3.81;74.50;101925.82;1739038;81;21140;-42
2021/03/01 10:21:47;;;;;;;6.12;4.85;;;;;;;3.86;74.48;101927.11;1713232;81;21118;-41
2021/03/01 10:24:16;;;;;;;7.15;5.55;;;;;;;3.97;74.50;101921.28;1719190;81;21482;-45
2021/03/01 10:26:56;;;;;;;8.90;5.28;;;;;;;4.07;73.87;101920.77;1714898;81;21159;-43
2021/03/01 10:29:42;;;;;;;8.73;5.23;;;;;;;4.12;73.75;101918.96;1709214;82;21156;-42
2021/03/01 10:32:23;;;;;;;5.58;4.45;;;;;;;4.17;73.12;101919.80;1716613;81;21562;-42
2021/03/01 10:34:53;;;;;;;6.97;4.72;;;;;;;4.17;72.24;101912.33;1718704;82;21554;-45
2021/03/01 10:37:26;;;;;;;7.03;6.17;;;;;;;4.10;71.74;101907.08;1741552;81;21153;-41
2021/03/01 10:39:54;;;;;;;7.78;5.40;;;;;;;4.03;71.95;101909.38;1723921;81;21166;-46
2021/03/01 10:42:24;;;;;;;7.85;5.12;;;;;;;4.02;72.23;101905.41;1708337;81;21588;-44
2021/03/01 10:44:59;;;;;;;;;;;;;;;4.05;71.88;101904.06;1720998;81;21282;-44
2021/03/01 10:47:33;;;;;;;7.83;5.50;;;;;;;4.09;71.90;101900.52;1722165;82;20188;-43
2021/03/01 10:50:15;;;;;;;8.28;5.80;;;;;;;4.08;71.03;101903.61;1717912;82;21184;-44
2021/03/01 10:52:44;;;;;;;13.03;6.08;;;;;;;3.92;71.06;101903.74;1712927;82;21153;-44
2021/03/01 10:55:12;;;;;;;9.73;5.37;;;;;;;3.77;71.65;101907.38;1715316;82;21287;-45
2021/03/01 10:57:40;;;;;;;8.78;5.33;;;;;;;3.74;72.14;101902.13;1720662;81;21142;-44
2021/03/01 11:00:10;;;;;;;9.68;5.42;;;;;;;3.75;72.08;101901.23;1736690;81;21590;-44
2021/03/01 11:02:38;;;;;;;9.85;5.60;;;;;;;3.71;71.69;101904.80;1717182;81;21204;-44
2021/03/01 11:05:07;;;;;;;9.10;5.10;;;;;;;3.64;71.70;101902.64;1743269;80;21153;-45
2021/03/01 11:07:36;;;;;;;9.35;4.83;;;;;;;3.57;71.53;101903.56;1736053;80;21162;-44
2021/03/01 11:10:06;;;;;;;6.50;4.40;;;;;;;3.49;72.13;101912.85;1768472;80;21162;-42
2021/03/01 11:12:33;;;;;;;6.58;4.50;;;;;;;3.45;72.56;101909.38;1766328;80;21117;-45
2021/03/01 11:15:01;;;;;;;5.80;4.70;;;;;;;3.41;72.43;101915.54;1766398;80;21130;-45
2021/03/01 11:17:28;;;;;;;7.37;4.62;;;;;;;3.37;72.61;101916.44;1766430;80;21902;-45
2021/03/01 11:19:57;;;;;;;7.62;3.98;;;;;;;3.35;72.70;101925.23;1759125;80;21157;-45
2021/03/01 11:22:25;;;;;;;7.05;4.70;;;;;;;3.31;72.48;101920.44;1763513;80;21138;-41
2021/03/01 11:24:53;;;;;;;6.37;3.80;;;;;;;3.27;72.53;101920.45;1764776;80;21651;-45
2021/03/01 11:27:21;;;;;;;6.00;4.55;;;;;;;3.23;72.88;101918.30;1762632;80;21113;-45
2021/03/01 11:29:49;;;;;;;4.35;2.90;;;;;;;3.20;72.80;101920.50;1760354;80;21418;-44
2021/03/01 11:32:17;;;;;;;6.42;4.00;;;;;;;3.19;72.93;101922.69;1768047;80;21154;-42
2021/03/01 11:34:44;;;;;;;7.15;4.25;;;;;;;3.17;72.99;101916.54;1761014;80;21134;-45
2021/03/01 11:37:12;;;;;;;5.87;5.00;;;;;;;3.15;73.28;101916.11;1761689;80;21125;-44
2021/03/01 11:39:39;;;;;;;5.40;3.70;;;;;;;3.12;73.40;101917.45;1731357;81;21142;-45
2021/03/01 11:42:07;;;;;;;6.87;5.50;;;;;;;3.09;73.53;101920.98;1765442;79;21453;-44
2021/03/01 11:44:35;;;;;;;7.42;4.72;;;;;;;3.07;73.58;101917.47;1763052;79;21128;-45
2021/03/01 11:47:03;;;;;;;5.37;4.47;;;;;;;3.08;73.71;101918.37;1762552;79;21778;-44
2021/03/01 11:49:31;;;;;;;8.45;4.90;;;;;;;3.11;73.67;101917.03;1765025;80;21284;-44
2021/03/01 11:51:59;;;;;;;7.70;4.67;;;;;;;3.13;73.54;101922.73;1702713;83;21153;-45
2021/03/01 11:54:26;;;;;;;7.83;4.70;;;;;;;3.13;73.52;101925.81;1762360;80;21545;-44
2021/03/01 11:56:54;;;;;;;9.43;4.78;;;;;;;3.17;73.52;101922.27;1699834;83;21648;-47
2021/03/01 11:59:22;;;;;;;6.42;4.55;;;;;;;3.21;73.51;101920.92;1767567;80;21134;-43
2021/03/01 12:01:49;;;;;;;6.45;5.10;;;;;;;3.27;73.59;101922.64;1724860;81;21177;-43